sensor_id;sensor_type;location;lat;lon;timestamp;P1;durP1;ratioP1;P2;durP2;ratioP2
46407;SDS011;32110;45.724;21.276;2023-01-10T00:00:42;11.13;;;7.38;;
46407;SDS011;32110;45.724;21.276;2023-01-10T00:03:08;10.70;;;7.53;;
46407;SDS011;32110;45.724;21.276;2023-01-10T00:05:35;11.05;;;7.53;;
46407;SDS011;32110;45.724;21.276;2023-01-10T00:08:02;11.85;;;7.60;;
46407;SDS011;32110;45.724;21.276;2023-01-10T00:10:28;11.00;;;7.00;;
46407;SDS011;32110;45.724;21.276;2023-01-10T00:12:54;11.73;;;7.60;;
46407;SDS011;32110;45.724;21.276;2023-01-10T00:15:38;11.60;;;7.50;;
46407;SDS011;32110;45.724;21.276;2023-01-10T00:18:04;11.27;;;7.60;;
46407;SDS011;32110;45.724;21.276;2023-01-10T00:20:29;11.43;;;7.30;;
46407;SDS011;32110;45.724;21.276;2023-01-10T00:22:55;11.13;;;7.43;;
46407;SDS011;32110;45.724;21.276;2023-01-10T00:25:21;11.80;;;7.38;;
46407;SDS011;32110;45.724;21.276;2023-01-10T00:27:47;11.23;;;6.65;;
46407;SDS011;32110;45.724;21.276;2023-01-10T00:30:26;10.50;;;6.80;;
46407;SDS011;32110;45.724;21.276;2023-01-10T00:32:52;11.32;;;7.00;;
46407;SDS011;32110;45.724;21.276;2023-01-10T00:35:17;12.70;;;7.15;;
46407;SDS011;32110;45.724;21.276;2023-01-10T00:37:42;12.00;;;7.78;;
46407;SDS011;32110;45.724;21.276;2023-01-10T00:40:08;12.38;;;8.18;;
46407;SDS011;32110;45.724;21.276;2023-01-10T00:42:36;12.55;;;7.43;;
46407;SDS011;32110;45.724;21.276;2023-01-10T00:45:20;11.77;;;7.47;;
46407;SDS011;32110;45.724;21.276;2023-01-10T00:47:48;11.88;;;7.65;;
46407;SDS011;32110;45.724;21.276;2023-01-10T00:50:13;13.45;;;7.65;;
46407;SDS011;32110;45.724;21.276;2023-01-10T00:52:39;11.55;;;7.68;;
46407;SDS011;32110;45.724;21.276;2023-01-10T00:55:04;11.93;;;7.47;;
46407;SDS011;32110;45.724;21.276;2023-01-10T00:57:30;10.95;;;7.50;;
46407;SDS011;32110;45.724;21.276;2023-01-10T00:59:55;12.95;;;7.40;;
46407;SDS011;32110;45.724;21.276;2023-01-10T01:02:21;10.88;;;7.32;;
46407;SDS011;32110;45.724;21.276;2023-01-10T01:04:46;11.70;;;7.60;;
46407;SDS011;32110;45.724;21.276;2023-01-10T01:07:12;12.27;;;7.20;;
46407;SDS011;32110;45.724;21.276;2023-01-10T01:09:37;11.80;;;7.30;;
46407;SDS011;32110;45.724;21.276;2023-01-10T01:12:22;11.63;;;7.45;;
46407;SDS011;32110;45.724;21.276;2023-01-10T01:14:48;13.57;;;8.13;;
46407;SDS011;32110;45.724;21.276;2023-01-10T01:17:13;11.63;;;7.53;;
46407;SDS011;32110;45.724;21.276;2023-01-10T01:19:39;11.82;;;7.65;;
46407;SDS011;32110;45.724;21.276;2023-01-10T01:22:05;12.20;;;7.53;;
46407;SDS011;32110;45.724;21.276;2023-01-10T01:24:30;9.93;;;7.05;;
46407;SDS011;32110;45.724;21.276;2023-01-10T01:26:55;14.02;;;8.15;;
46407;SDS011;32110;45.724;21.276;2023-01-10T01:29:21;12.38;;;7.55;;
46407;SDS011;32110;45.724;21.276;2023-01-10T01:31:46;11.13;;;7.68;;
46407;SDS011;32110;45.724;21.276;2023-01-10T01:34:11;13.10;;;7.65;;
46407;SDS011;32110;45.724;21.276;2023-01-10T01:36:37;10.77;;;7.18;;
46407;SDS011;32110;45.724;21.276;2023-01-10T01:39:02;13.63;;;8.07;;
46407;SDS011;32110;45.724;21.276;2023-01-10T01:41:28;13.50;;;7.40;;
46407;SDS011;32110;45.724;21.276;2023-01-10T01:44:15;12.00;;;7.28;;
46407;SDS011;32110;45.724;21.276;2023-01-10T01:46:44;13.80;;;7.28;;
46407;SDS011;32110;45.724;21.276;2023-01-10T01:49:18;12.43;;;7.50;;
46407;SDS011;32110;45.724;21.276;2023-01-10T01:51:48;11.93;;;7.35;;
46407;SDS011;32110;45.724;21.276;2023-01-10T01:54:18;11.10;;;7.60;;
46407;SDS011;32110;45.724;21.276;2023-01-10T01:59:32;10.88;;;7.20;;
46407;SDS011;32110;45.724;21.276;2023-01-10T02:02:06;11.07;;;7.30;;
46407;SDS011;32110;45.724;21.276;2023-01-10T02:04:41;11.57;;;7.25;;
46407;SDS011;32110;45.724;21.276;2023-01-10T02:07:12;11.07;;;7.43;;
46407;SDS011;32110;45.724;21.276;2023-01-10T02:09:46;11.45;;;7.43;;
46407;SDS011;32110;45.724;21.276;2023-01-10T02:12:13;11.63;;;7.10;;
46407;SDS011;32110;45.724;21.276;2023-01-10T02:14:39;12.05;;;7.60;;
46407;SDS011;32110;45.724;21.276;2023-01-10T02:17:10;9.93;;;6.90;;
46407;SDS011;32110;45.724;21.276;2023-01-10T02:19:41;11.80;;;7.50;;
46407;SDS011;32110;45.724;21.276;2023-01-10T02:47:03;11.48;;;7.25;;
46407;SDS011;32110;45.724;21.276;2023-01-10T02:49:39;12.63;;;6.95;;
46407;SDS011;32110;45.724;21.276;2023-01-10T02:52:10;10.73;;;6.90;;
46407;SDS011;32110;45.724;21.276;2023-01-10T02:54:39;12.52;;;7.68;;
46407;SDS011;32110;45.724;21.276;2023-01-10T02:57:15;13.52;;;7.68;;
46407;SDS011;32110;45.724;21.276;2023-01-10T03:07:57;12.40;;;7.50;;
46407;SDS011;32110;45.724;21.276;2023-01-10T03:10:46;11.70;;;7.55;;
46407;SDS011;32110;45.724;21.276;2023-01-10T03:16:03;12.90;;;7.55;;
46407;SDS011;32110;45.724;21.276;2023-01-10T03:18:36;12.18;;;7.75;;
46407;SDS011;32110;45.724;21.276;2023-01-10T03:21:07;11.55;;;7.72;;
46407;SDS011;32110;45.724;21.276;2023-01-10T03:23:35;11.43;;;7.63;;
46407;SDS011;32110;45.724;21.276;2023-01-10T03:26:02;13.05;;;7.90;;
46407;SDS011;32110;45.724;21.276;2023-01-10T03:28:32;11.98;;;7.60;;
46407;SDS011;32110;45.724;21.276;2023-01-10T03:31:09;13.52;;;7.43;;
46407;SDS011;32110;45.724;21.276;2023-01-10T03:33:38;12.43;;;7.63;;
46407;SDS011;32110;45.724;21.276;2023-01-10T03:36:14;13.95;;;8.18;;
46407;SDS011;32110;45.724;21.276;2023-01-10T03:44:32;13.13;;;7.72;;
46407;SDS011;32110;45.724;21.276;2023-01-10T03:50:22;10.85;;;6.30;;
46407;SDS011;32110;45.724;21.276;2023-01-10T03:52:50;11.77;;;7.35;;
46407;SDS011;32110;45.724;21.276;2023-01-10T03:55:20;13.30;;;7.03;;
46407;SDS011;32110;45.724;21.276;2023-01-10T03:57:48;10.60;;;7.22;;
46407;SDS011;32110;45.724;21.276;2023-01-10T04:00:14;10.95;;;6.72;;
46407;SDS011;32110;45.724;21.276;2023-01-10T04:02:40;11.20;;;7.00;;
46407;SDS011;32110;45.724;21.276;2023-01-10T04:05:05;10.02;;;6.40;;
46407;SDS011;32110;45.724;21.276;2023-01-10T04:07:31;11.85;;;6.78;;
46407;SDS011;32110;45.724;21.276;2023-01-10T04:09:57;12.57;;;7.20;;
46407;SDS011;32110;45.724;21.276;2023-01-10T04:12:22;11.30;;;6.55;;
46407;SDS011;32110;45.724;21.276;2023-01-10T04:14:48;12.73;;;6.53;;
46407;SDS011;32110;45.724;21.276;2023-01-10T04:17:14;10.20;;;6.50;;
46407;SDS011;32110;45.724;21.276;2023-01-10T04:19:41;15.10;;;6.40;;
46407;SDS011;32110;45.724;21.276;2023-01-10T04:22:07;9.95;;;6.03;;
46407;SDS011;32110;45.724;21.276;2023-01-10T04:24:33;9.00;;;6.13;;
46407;SDS011;32110;45.724;21.276;2023-01-10T04:26:58;9.77;;;5.95;;
46407;SDS011;32110;45.724;21.276;2023-01-10T04:29:24;11.93;;;7.20;;
46407;SDS011;32110;45.724;21.276;2023-01-10T04:31:49;17.67;;;9.65;;
46407;SDS011;32110;45.724;21.276;2023-01-10T04:34:15;15.98;;;8.80;;
46407;SDS011;32110;45.724;21.276;2023-01-10T04:36:40;17.42;;;9.95;;
46407;SDS011;32110;45.724;21.276;2023-01-10T04:39:06;16.73;;;10.05;;
46407;SDS011;32110;45.724;21.276;2023-01-10T04:41:32;18.05;;;10.80;;
46407;SDS011;32110;45.724;21.276;2023-01-10T04:43:58;18.00;;;9.48;;
46407;SDS011;32110;45.724;21.276;2023-01-10T04:46:24;18.02;;;11.10;;
46407;SDS011;32110;45.724;21.276;2023-01-10T04:48:49;21.25;;;12.18;;
46407;SDS011;32110;45.724;21.276;2023-01-10T04:51:15;21.77;;;12.50;;
46407;SDS011;32110;45.724;21.276;2023-01-10T04:53:40;23.05;;;12.48;;
46407;SDS011;32110;45.724;21.276;2023-01-10T04:56:07;20.95;;;11.95;;
46407;SDS011;32110;45.724;21.276;2023-01-10T04:58:40;26.23;;;12.20;;
46407;SDS011;32110;45.724;21.276;2023-01-10T05:01:06;22.55;;;12.32;;
46407;SDS011;32110;45.724;21.276;2023-01-10T05:03:35;21.25;;;13.02;;
46407;SDS011;32110;45.724;21.276;2023-01-10T05:06:01;21.90;;;13.48;;
46407;SDS011;32110;45.724;21.276;2023-01-10T05:08:27;26.30;;;13.07;;
46407;SDS011;32110;45.724;21.276;2023-01-10T05:10:52;23.42;;;11.98;;
46407;SDS011;32110;45.724;21.276;2023-01-10T05:13:17;21.20;;;11.88;;
46407;SDS011;32110;45.724;21.276;2023-01-10T05:15:43;25.55;;;12.40;;
46407;SDS011;32110;45.724;21.276;2023-01-10T05:18:08;25.20;;;13.55;;
46407;SDS011;32110;45.724;21.276;2023-01-10T05:20:33;18.95;;;10.52;;
46407;SDS011;32110;45.724;21.276;2023-01-10T05:22:59;18.63;;;11.18;;
46407;SDS011;32110;45.724;21.276;2023-01-10T05:25:24;19.40;;;11.00;;
46407;SDS011;32110;45.724;21.276;2023-01-10T05:27:49;25.05;;;12.07;;
46407;SDS011;32110;45.724;21.276;2023-01-10T05:30:15;23.38;;;12.32;;
46407;SDS011;32110;45.724;21.276;2023-01-10T05:32:41;20.70;;;11.00;;
46407;SDS011;32110;45.724;21.276;2023-01-10T05:35:06;19.80;;;11.43;;
46407;SDS011;32110;45.724;21.276;2023-01-10T05:37:32;21.23;;;11.27;;
46407;SDS011;32110;45.724;21.276;2023-01-10T05:39:57;22.88;;;11.85;;
46407;SDS011;32110;45.724;21.276;2023-01-10T05:42:22;20.98;;;11.10;;
46407;SDS011;32110;45.724;21.276;2023-01-10T05:44:48;21.30;;;11.32;;
46407;SDS011;32110;45.724;21.276;2023-01-10T05:47:13;22.23;;;11.82;;
46407;SDS011;32110;45.724;21.276;2023-01-10T05:49:38;21.23;;;12.10;;
46407;SDS011;32110;45.724;21.276;2023-01-10T05:52:04;21.08;;;12.52;;
46407;SDS011;32110;45.724;21.276;2023-01-10T05:54:29;23.52;;;12.50;;
46407;SDS011;32110;45.724;21.276;2023-01-10T05:56:55;24.15;;;12.18;;
46407;SDS011;32110;45.724;21.276;2023-01-10T05:59:21;24.25;;;13.45;;
46407;SDS011;32110;45.724;21.276;2023-01-10T06:01:46;24.25;;;13.23;;
46407;SDS011;32110;45.724;21.276;2023-01-10T06:04:12;25.02;;;13.07;;
46407;SDS011;32110;45.724;21.276;2023-01-10T06:06:38;29.55;;;14.18;;
46407;SDS011;32110;45.724;21.276;2023-01-10T06:09:04;27.75;;;14.25;;
46407;SDS011;32110;45.724;21.276;2023-01-10T06:11:29;27.70;;;13.57;;
46407;SDS011;32110;45.724;21.276;2023-01-10T06:13:58;23.50;;;13.63;;
46407;SDS011;32110;45.724;21.276;2023-01-10T06:16:23;28.63;;;14.40;;
46407;SDS011;32110;45.724;21.276;2023-01-10T06:18:49;22.48;;;13.32;;
46407;SDS011;32110;45.724;21.276;2023-01-10T06:21:15;23.25;;;13.00;;
46407;SDS011;32110;45.724;21.276;2023-01-10T06:23:40;23.75;;;12.88;;
46407;SDS011;32110;45.724;21.276;2023-01-10T06:26:06;25.25;;;12.60;;
46407;SDS011;32110;45.724;21.276;2023-01-10T06:28:31;25.50;;;13.57;;
46407;SDS011;32110;45.724;21.276;2023-01-10T06:30:57;22.65;;;12.57;;
46407;SDS011;32110;45.724;21.276;2023-01-10T06:33:22;23.00;;;11.65;;
46407;SDS011;32110;45.724;21.276;2023-01-10T06:35:47;22.70;;;11.95;;
46407;SDS011;32110;45.724;21.276;2023-01-10T06:38:13;20.88;;;11.98;;
46407;SDS011;32110;45.724;21.276;2023-01-10T06:40:39;22.23;;;11.90;;
46407;SDS011;32110;45.724;21.276;2023-01-10T06:43:05;21.63;;;11.60;;
46407;SDS011;32110;45.724;21.276;2023-01-10T06:45:30;21.88;;;11.50;;
46407;SDS011;32110;45.724;21.276;2023-01-10T06:47:56;24.42;;;12.60;;
46407;SDS011;32110;45.724;21.276;2023-01-10T06:50:21;22.05;;;12.38;;
46407;SDS011;32110;45.724;21.276;2023-01-10T06:52:56;19.85;;;11.27;;
46407;SDS011;32110;45.724;21.276;2023-01-10T06:55:23;22.17;;;11.10;;
46407;SDS011;32110;45.724;21.276;2023-01-10T06:57:53;20.05;;;9.00;;
46407;SDS011;32110;45.724;21.276;2023-01-10T07:00:20;18.77;;;10.18;;
46407;SDS011;32110;45.724;21.276;2023-01-10T07:02:46;16.13;;;8.32;;
46407;SDS011;32110;45.724;21.276;2023-01-10T07:05:12;12.48;;;7.10;;
46407;SDS011;32110;45.724;21.276;2023-01-10T07:07:37;15.13;;;7.72;;
46407;SDS011;32110;45.724;21.276;2023-01-10T07:10:02;12.50;;;6.32;;
46407;SDS011;32110;45.724;21.276;2023-01-10T07:12:28;12.60;;;6.97;;
46407;SDS011;32110;45.724;21.276;2023-01-10T07:14:53;11.05;;;6.82;;
46407;SDS011;32110;45.724;21.276;2023-01-10T07:17:19;10.80;;;6.28;;
46407;SDS011;32110;45.724;21.276;2023-01-10T07:19:44;13.32;;;6.55;;
46407;SDS011;32110;45.724;21.276;2023-01-10T07:22:10;12.07;;;6.32;;
46407;SDS011;32110;45.724;21.276;2023-01-10T07:24:35;11.23;;;6.47;;
46407;SDS011;32110;45.724;21.276;2023-01-10T07:27:01;15.82;;;6.82;;
46407;SDS011;32110;45.724;21.276;2023-01-10T07:29:26;13.80;;;7.43;;
46407;SDS011;32110;45.724;21.276;2023-01-10T07:31:52;12.00;;;6.25;;
46407;SDS011;32110;45.724;21.276;2023-01-10T07:34:18;13.82;;;6.75;;
46407;SDS011;32110;45.724;21.276;2023-01-10T07:36:43;13.02;;;6.32;;
46407;SDS011;32110;45.724;21.276;2023-01-10T07:39:08;13.25;;;6.70;;
46407;SDS011;32110;45.724;21.276;2023-01-10T07:41:34;12.65;;;6.57;;
46407;SDS011;32110;45.724;21.276;2023-01-10T07:43:59;14.13;;;6.63;;
46407;SDS011;32110;45.724;21.276;2023-01-10T07:46:24;15.38;;;5.72;;
46407;SDS011;32110;45.724;21.276;2023-01-10T07:48:50;11.95;;;7.40;;
46407;SDS011;32110;45.724;21.276;2023-01-10T07:51:15;14.15;;;7.20;;
46407;SDS011;32110;45.724;21.276;2023-01-10T07:53:41;13.70;;;6.65;;
46407;SDS011;32110;45.724;21.276;2023-01-10T07:56:06;16.08;;;7.43;;
46407;SDS011;32110;45.724;21.276;2023-01-10T07:58:32;16.52;;;7.65;;
46407;SDS011;32110;45.724;21.276;2023-01-10T08:00:57;12.23;;;7.10;;
46407;SDS011;32110;45.724;21.276;2023-01-10T08:03:24;13.25;;;6.70;;
46407;SDS011;32110;45.724;21.276;2023-01-10T08:05:55;12.25;;;6.40;;
46407;SDS011;32110;45.724;21.276;2023-01-10T08:08:23;13.18;;;6.90;;
46407;SDS011;32110;45.724;21.276;2023-01-10T08:10:48;11.95;;;6.38;;
46407;SDS011;32110;45.724;21.276;2023-01-10T08:13:13;13.60;;;6.72;;
46407;SDS011;32110;45.724;21.276;2023-01-10T08:15:39;10.45;;;6.68;;
46407;SDS011;32110;45.724;21.276;2023-01-10T08:18:04;10.30;;;5.70;;
46407;SDS011;32110;45.724;21.276;2023-01-10T08:20:29;9.15;;;5.43;;
46407;SDS011;32110;45.724;21.276;2023-01-10T08:22:58;12.00;;;5.78;;
46407;SDS011;32110;45.724;21.276;2023-01-10T08:25:24;15.18;;;6.63;;
46407;SDS011;32110;45.724;21.276;2023-01-10T08:27:50;10.25;;;5.95;;
46407;SDS011;32110;45.724;21.276;2023-01-10T08:30:16;12.85;;;6.72;;
46407;SDS011;32110;45.724;21.276;2023-01-10T08:32:41;11.73;;;6.30;;
46407;SDS011;32110;45.724;21.276;2023-01-10T08:35:07;10.70;;;6.72;;
46407;SDS011;32110;45.724;21.276;2023-01-10T08:37:33;10.45;;;6.35;;
46407;SDS011;32110;45.724;21.276;2023-01-10T08:39:59;11.52;;;7.22;;
46407;SDS011;32110;45.724;21.276;2023-01-10T08:42:24;11.02;;;6.22;;
46407;SDS011;32110;45.724;21.276;2023-01-10T08:44:50;11.18;;;5.68;;
46407;SDS011;32110;45.724;21.276;2023-01-10T08:47:15;10.63;;;5.88;;
46407;SDS011;32110;45.724;21.276;2023-01-10T08:49:41;8.95;;;5.65;;
46407;SDS011;32110;45.724;21.276;2023-01-10T08:52:06;9.82;;;6.50;;
46407;SDS011;32110;45.724;21.276;2023-01-10T08:54:31;10.75;;;6.55;;
46407;SDS011;32110;45.724;21.276;2023-01-10T08:56:57;9.55;;;5.82;;
46407;SDS011;32110;45.724;21.276;2023-01-10T08:59:23;10.63;;;6.10;;
46407;SDS011;32110;45.724;21.276;2023-01-10T09:01:48;9.48;;;6.30;;
46407;SDS011;32110;45.724;21.276;2023-01-10T09:04:14;10.50;;;6.00;;
46407;SDS011;32110;45.724;21.276;2023-01-10T09:06:39;10.18;;;6.03;;
46407;SDS011;32110;45.724;21.276;2023-01-10T09:09:05;12.30;;;5.63;;
46407;SDS011;32110;45.724;21.276;2023-01-10T09:11:30;10.82;;;5.93;;
46407;SDS011;32110;45.724;21.276;2023-01-10T09:13:55;9.38;;;6.43;;
46407;SDS011;32110;45.724;21.276;2023-01-10T09:16:21;9.18;;;5.80;;
46407;SDS011;32110;45.724;21.276;2023-01-10T09:18:47;14.40;;;6.55;;
46407;SDS011;32110;45.724;21.276;2023-01-10T09:21:13;11.63;;;6.95;;
46407;SDS011;32110;45.724;21.276;2023-01-10T09:23:38;12.07;;;6.20;;
46407;SDS011;32110;45.724;21.276;2023-01-10T09:26:04;12.40;;;7.30;;
46407;SDS011;32110;45.724;21.276;2023-01-10T09:28:30;14.95;;;8.10;;
46407;SDS011;32110;45.724;21.276;2023-01-10T09:30:55;16.83;;;8.82;;
46407;SDS011;32110;45.724;21.276;2023-01-10T09:33:22;12.52;;;7.57;;
46407;SDS011;32110;45.724;21.276;2023-01-10T09:35:47;13.45;;;6.90;;
46407;SDS011;32110;45.724;21.276;2023-01-10T09:38:14;14.52;;;8.55;;
46407;SDS011;32110;45.724;21.276;2023-01-10T09:51:39;10.73;;;6.75;;
46407;SDS011;32110;45.724;21.276;2023-01-10T09:54:11;15.05;;;8.20;;
46407;SDS011;32110;45.724;21.276;2023-01-10T09:56:41;12.73;;;6.82;;
46407;SDS011;32110;45.724;21.276;2023-01-10T09:59:13;16.77;;;10.30;;
46407;SDS011;32110;45.724;21.276;2023-01-10T10:01:42;22.23;;;14.45;;
46407;SDS011;32110;45.724;21.276;2023-01-10T10:04:20;18.50;;;11.77;;
46407;SDS011;32110;45.724;21.276;2023-01-10T10:06:47;16.10;;;10.07;;
46407;SDS011;32110;45.724;21.276;2023-01-10T10:09:14;13.55;;;8.70;;
46407;SDS011;32110;45.724;21.276;2023-01-10T10:33:33;8.82;;;5.30;;
46407;SDS011;32110;45.724;21.276;2023-01-10T10:36:17;9.65;;;5.55;;
46407;SDS011;32110;45.724;21.276;2023-01-10T10:38:47;12.93;;;5.50;;
46407;SDS011;32110;45.724;21.276;2023-01-10T10:43:58;12.60;;;5.68;;
46407;SDS011;32110;45.724;21.276;2023-01-10T10:46:29;9.40;;;5.38;;
46407;SDS011;32110;45.724;21.276;2023-01-10T10:48:56;9.35;;;5.47;;
46407;SDS011;32110;45.724;21.276;2023-01-10T10:54:11;12.38;;;6.22;;
46407;SDS011;32110;45.724;21.276;2023-01-10T10:56:38;10.63;;;6.50;;
46407;SDS011;32110;45.724;21.276;2023-01-10T10:59:04;9.05;;;5.45;;
46407;SDS011;32110;45.724;21.276;2023-01-10T11:01:29;9.20;;;5.32;;
46407;SDS011;32110;45.724;21.276;2023-01-10T11:03:57;9.93;;;5.50;;
46407;SDS011;32110;45.724;21.276;2023-01-10T11:06:26;11.18;;;5.90;;
46407;SDS011;32110;45.724;21.276;2023-01-10T11:08:57;9.05;;;5.47;;
46407;SDS011;32110;45.724;21.276;2023-01-10T11:11:26;9.55;;;4.97;;
46407;SDS011;32110;45.724;21.276;2023-01-10T11:13:58;10.37;;;5.17;;
46407;SDS011;32110;45.724;21.276;2023-01-10T11:16:29;7.05;;;4.78;;
46407;SDS011;32110;45.724;21.276;2023-01-10T11:21:35;9.57;;;5.10;;
46407;SDS011;32110;45.724;21.276;2023-01-10T11:24:02;9.07;;;5.32;;
46407;SDS011;32110;45.724;21.276;2023-01-10T11:29:07;9.25;;;4.88;;
46407;SDS011;32110;45.724;21.276;2023-01-10T11:31:41;9.60;;;5.53;;
46407;SDS011;32110;45.724;21.276;2023-01-10T11:39:28;10.40;;;5.95;;
46407;SDS011;32110;45.724;21.276;2023-01-10T11:41:55;8.35;;;5.28;;
46407;SDS011;32110;45.724;21.276;2023-01-10T11:44:24;9.85;;;5.43;;
46407;SDS011;32110;45.724;21.276;2023-01-10T11:46:55;9.30;;;5.22;;
46407;SDS011;32110;45.724;21.276;2023-01-10T11:49:26;11.50;;;5.07;;
46407;SDS011;32110;45.724;21.276;2023-01-10T11:54:51;9.10;;;4.75;;
46407;SDS011;32110;45.724;21.276;2023-01-10T11:57:23;7.32;;;4.75;;
46407;SDS011;32110;45.724;21.276;2023-01-10T12:00:05;7.97;;;5.00;;
46407;SDS011;32110;45.724;21.276;2023-01-10T12:02:36;10.10;;;5.60;;
46407;SDS011;32110;45.724;21.276;2023-01-10T12:05:06;7.72;;;4.82;;
46407;SDS011;32110;45.724;21.276;2023-01-10T12:10:52;9.77;;;5.47;;
46407;SDS011;32110;45.724;21.276;2023-01-10T12:13:26;9.02;;;5.05;;
46407;SDS011;32110;45.724;21.276;2023-01-10T12:16:04;8.75;;;5.28;;
46407;SDS011;32110;45.724;21.276;2023-01-10T12:18:39;9.85;;;5.95;;
46407;SDS011;32110;45.724;21.276;2023-01-10T12:21:04;11.88;;;5.55;;
46407;SDS011;32110;45.724;21.276;2023-01-10T12:23:31;7.57;;;5.05;;
46407;SDS011;32110;45.724;21.276;2023-01-10T12:25:59;10.57;;;5.80;;
46407;SDS011;32110;45.724;21.276;2023-01-10T12:28:28;11.15;;;6.25;;
46407;SDS011;32110;45.724;21.276;2023-01-10T12:33:23;6.32;;;4.13;;
46407;SDS011;32110;45.724;21.276;2023-01-10T12:35:54;9.52;;;4.70;;
46407;SDS011;32110;45.724;21.276;2023-01-10T12:38:30;8.00;;;4.45;;
46407;SDS011;32110;45.724;21.276;2023-01-10T12:44:28;6.77;;;4.30;;
46407;SDS011;32110;45.724;21.276;2023-01-10T12:49:45;10.88;;;6.00;;
46407;SDS011;32110;45.724;21.276;2023-01-10T12:52:19;10.38;;;6.07;;
46407;SDS011;32110;45.724;21.276;2023-01-10T12:54:52;7.55;;;4.47;;
46407;SDS011;32110;45.724;21.276;2023-01-10T12:57:29;6.28;;;4.47;;
46407;SDS011;32110;45.724;21.276;2023-01-10T12:59:58;7.60;;;4.38;;
46407;SDS011;32110;45.724;21.276;2023-01-10T13:04:55;9.45;;;4.22;;
46407;SDS011;32110;45.724;21.276;2023-01-10T13:07:28;9.13;;;5.35;;
46407;SDS011;32110;45.724;21.276;2023-01-10T13:09:59;11.25;;;6.32;;
46407;SDS011;32110;45.724;21.276;2023-01-10T13:12:29;9.07;;;4.97;;
46407;SDS011;32110;45.724;21.276;2023-01-10T13:15:12;8.13;;;5.03;;
46407;SDS011;32110;45.724;21.276;2023-01-10T13:17:47;7.47;;;5.03;;
46407;SDS011;32110;45.724;21.276;2023-01-10T13:22:44;7.88;;;4.85;;
46407;SDS011;32110;45.724;21.276;2023-01-10T13:27:45;8.02;;;5.20;;
46407;SDS011;32110;45.724;21.276;2023-01-10T13:30:25;9.50;;;5.20;;
46407;SDS011;32110;45.724;21.276;2023-01-10T13:32:57;8.48;;;5.10;;
46407;SDS011;32110;45.724;21.276;2023-01-10T13:35:27;9.20;;;5.00;;
46407;SDS011;32110;45.724;21.276;2023-01-10T13:38:02;9.15;;;4.60;;
46407;SDS011;32110;45.724;21.276;2023-01-10T13:40:28;10.85;;;5.00;;
46407;SDS011;32110;45.724;21.276;2023-01-10T13:48:38;8.13;;;5.07;;
46407;SDS011;32110;45.724;21.276;2023-01-10T13:51:05;9.38;;;5.50;;
46407;SDS011;32110;45.724;21.276;2023-01-10T13:53:42;8.75;;;6.30;;
46407;SDS011;32110;45.724;21.276;2023-01-10T13:58:52;7.45;;;4.70;;
46407;SDS011;32110;45.724;21.276;2023-01-10T14:01:38;10.10;;;5.55;;
46407;SDS011;32110;45.724;21.276;2023-01-10T14:04:27;9.23;;;5.57;;
46407;SDS011;32110;45.724;21.276;2023-01-10T14:09:48;9.57;;;5.53;;
46407;SDS011;32110;45.724;21.276;2023-01-10T14:12:26;8.23;;;5.00;;
46407;SDS011;32110;45.724;21.276;2023-01-10T14:15:25;7.65;;;4.43;;
46407;SDS011;32110;45.724;21.276;2023-01-10T14:18:04;7.90;;;4.28;;
46407;SDS011;32110;45.724;21.276;2023-01-10T14:21:01;12.60;;;7.18;;
46407;SDS011;32110;45.724;21.276;2023-01-10T14:23:36;13.50;;;9.32;;
46407;SDS011;32110;45.724;21.276;2023-01-10T14:26:05;17.38;;;10.05;;
46407;SDS011;32110;45.724;21.276;2023-01-10T14:28:38;13.50;;;9.02;;
46407;SDS011;32110;45.724;21.276;2023-01-10T14:31:12;17.38;;;10.43;;
46407;SDS011;32110;45.724;21.276;2023-01-10T14:33:43;21.45;;;12.38;;
46407;SDS011;32110;45.724;21.276;2023-01-10T14:36:14;24.02;;;15.63;;
46407;SDS011;32110;45.724;21.276;2023-01-10T14:38:43;25.33;;;15.77;;
46407;SDS011;32110;45.724;21.276;2023-01-10T14:44:16;17.55;;;9.75;;
46407;SDS011;32110;45.724;21.276;2023-01-10T14:46:49;13.93;;;8.32;;
46407;SDS011;32110;45.724;21.276;2023-01-10T14:49:26;9.48;;;6.78;;
46407;SDS011;32110;45.724;21.276;2023-01-10T14:51:53;10.73;;;6.47;;
46407;SDS011;32110;45.724;21.276;2023-01-10T14:54:39;8.55;;;5.15;;
46407;SDS011;32110;45.724;21.276;2023-01-10T14:57:13;7.13;;;4.35;;
46407;SDS011;32110;45.724;21.276;2023-01-10T14:59:41;7.68;;;4.30;;
46407;SDS011;32110;45.724;21.276;2023-01-10T15:02:18;9.48;;;4.22;;
46407;SDS011;32110;45.724;21.276;2023-01-10T15:04:58;10.75;;;4.82;;
46407;SDS011;32110;45.724;21.276;2023-01-10T15:07:31;10.10;;;4.80;;
46407;SDS011;32110;45.724;21.276;2023-01-10T15:09:57;6.60;;;4.38;;
46407;SDS011;32110;45.724;21.276;2023-01-10T15:15:16;8.05;;;4.63;;
46407;SDS011;32110;45.724;21.276;2023-01-10T15:17:43;8.73;;;5.40;;
46407;SDS011;32110;45.724;21.276;2023-01-10T15:20:16;12.75;;;5.25;;
46407;SDS011;32110;45.724;21.276;2023-01-10T15:22:55;7.57;;;5.78;;
46407;SDS011;32110;45.724;21.276;2023-01-10T15:25:24;9.40;;;6.07;;
46407;SDS011;32110;45.724;21.276;2023-01-10T15:27:56;9.13;;;5.95;;
46407;SDS011;32110;45.724;21.276;2023-01-10T15:30:24;8.63;;;5.78;;
46407;SDS011;32110;45.724;21.276;2023-01-10T15:32:52;5.90;;;4.80;;
46407;SDS011;32110;45.724;21.276;2023-01-10T15:35:26;8.45;;;5.32;;
46407;SDS011;32110;45.724;21.276;2023-01-10T15:37:55;7.55;;;5.75;;
46407;SDS011;32110;45.724;21.276;2023-01-10T15:40:24;9.20;;;6.50;;
46407;SDS011;32110;45.724;21.276;2023-01-10T15:45:42;9.88;;;6.57;;
46407;SDS011;32110;45.724;21.276;2023-01-10T15:48:25;7.78;;;5.80;;
46407;SDS011;32110;45.724;21.276;2023-01-10T15:51:01;7.93;;;5.83;;
46407;SDS011;32110;45.724;21.276;2023-01-10T15:56:20;10.18;;;6.88;;
46407;SDS011;32110;45.724;21.276;2023-01-10T15:58:50;12.88;;;7.00;;
46407;SDS011;32110;45.724;21.276;2023-01-10T16:01:16;14.02;;;8.15;;
46407;SDS011;32110;45.724;21.276;2023-01-10T16:03:46;12.23;;;7.60;;
46407;SDS011;32110;45.724;21.276;2023-01-10T16:06:25;11.70;;;7.68;;
46407;SDS011;32110;45.724;21.276;2023-01-10T16:08:54;15.30;;;7.70;;
46407;SDS011;32110;45.724;21.276;2023-01-10T16:11:32;13.30;;;7.78;;
46407;SDS011;32110;45.724;21.276;2023-01-10T16:14:21;14.93;;;8.73;;
46407;SDS011;32110;45.724;21.276;2023-01-10T16:16:47;9.88;;;6.22;;
46407;SDS011;32110;45.724;21.276;2023-01-10T16:19:13;8.52;;;5.85;;
46407;SDS011;32110;45.724;21.276;2023-01-10T16:21:39;11.43;;;6.20;;
46407;SDS011;32110;45.724;21.276;2023-01-10T16:24:13;11.73;;;7.40;;
46407;SDS011;32110;45.724;21.276;2023-01-10T16:26:51;14.85;;;7.55;;
46407;SDS011;32110;45.724;21.276;2023-01-10T16:29:16;12.27;;;7.18;;
46407;SDS011;32110;45.724;21.276;2023-01-10T16:31:44;13.00;;;7.57;;
46407;SDS011;32110;45.724;21.276;2023-01-10T16:34:10;24.73;;;11.32;;
46407;SDS011;32110;45.724;21.276;2023-01-10T16:36:35;67.32;;;24.58;;
46407;SDS011;32110;45.724;21.276;2023-01-10T16:39:03;35.45;;;16.73;;
46407;SDS011;32110;45.724;21.276;2023-01-10T16:41:50;26.70;;;12.30;;
46407;SDS011;32110;45.724;21.276;2023-01-10T16:44:34;18.10;;;10.57;;
46407;SDS011;32110;45.724;21.276;2023-01-10T16:46:59;18.27;;;10.10;;
46407;SDS011;32110;45.724;21.276;2023-01-10T16:49:25;18.55;;;9.27;;
46407;SDS011;32110;45.724;21.276;2023-01-10T16:51:51;14.32;;;8.35;;